sensor_id;sensor_type;location;lat;lon;timestamp;pressure;altitude;pressure_sealevel;temperature;humidity
11049;BME280;5577;42.706;23.160;2024-01-07T00:01:08;64821.28;;;-141.11;100.00
11049;BME280;5577;42.706;23.160;2024-01-07T00:03:52;92680.56;;;4.57;100.00
11049;BME280;5577;42.706;23.160;2024-01-07T00:06:36;92680.56;;;4.76;100.00
11049;BME280;5577;42.706;23.160;2024-01-07T00:09:20;92676.94;;;4.80;100.00
11049;BME280;5577;42.706;23.160;2024-01-07T00:12:04;92673.53;;;4.80;100.00
11049;BME280;5577;42.706;23.160;2024-01-07T00:14:49;92670.56;;;4.62;100.00
11049;BME280;5577;42.706;23.160;2024-01-07T00:17:32;64821.28;;;-141.11;100.00
11049;BME280;5577;42.706;23.160;2024-01-07T00:20:16;64821.28;;;-141.11;100.00
11049;BME280;5577;42.706;23.160;2024-01-07T00:23:00;92658.88;;;4.41;100.00
11049;BME280;5577;42.706;23.160;2024-01-07T00:25:45;92663.84;;;4.46;100.00
11049;BME280;5577;42.706;23.160;2024-01-07T00:28:29;92647.94;;;4.54;100.00
11049;BME280;5577;42.706;23.160;2024-01-07T00:31:12;92639.66;;;4.71;100.00
11049;BME280;5577;42.706;23.160;2024-01-07T00:33:56;92641.94;;;4.73;100.00
11049;BME280;5577;42.706;23.160;2024-01-07T00:36:41;92624.84;;;4.79;100.00
11049;BME280;5577;42.706;23.160;2024-01-07T00:39:24;92624.84;;;4.79;100.00
11049;BME280;5577;42.706;23.160;2024-01-07T00:42:08;92611.25;;;4.73;100.00
11049;BME280;5577;42.706;23.160;2024-01-07T00:44:52;92610.41;;;4.88;100.00
11049;BME280;5577;42.706;23.160;2024-01-07T00:47:36;92600.13;;;4.99;100.00
11049;BME280;5577;42.706;23.160;2024-01-07T00:50:20;92602.00;;;4.98;100.00
11049;BME280;5577;42.706;23.160;2024-01-07T00:53:04;92579.50;;;4.97;100.00
11049;BME280;5577;42.706;23.160;2024-01-07T00:55:47;92569.72;;;4.94;100.00
11049;BME280;5577;42.706;23.160;2024-01-07T00:58:31;64821.28;;;-141.11;100.00
11049;BME280;5577;42.706;23.160;2024-01-07T01:01:15;92572.50;;;5.05;100.00
11049;BME280;5577;42.706;23.160;2024-01-07T01:03:59;92566.28;;;5.13;100.00
11049;BME280;5577;42.706;23.160;2024-01-07T01:06:43;92562.13;;;5.12;100.00
11049;BME280;5577;42.706;23.160;2024-01-07T01:09:28;64821.28;;;-141.11;100.00
11049;BME280;5577;42.706;23.160;2024-01-07T01:12:13;92565.28;;;5.21;100.00
11049;BME280;5577;42.706;23.160;2024-01-07T01:14:56;92568.16;;;5.35;100.00
11049;BME280;5577;42.706;23.160;2024-01-07T01:17:40;64821.28;;;-141.11;100.00
11049;BME280;5577;42.706;23.160;2024-01-07T01:20:24;92547.38;;;5.49;100.00
11049;BME280;5577;42.706;23.160;2024-01-07T01:23:08;92544.41;;;5.50;100.00
11049;BME280;5577;42.706;23.160;2024-01-07T01:25:52;92543.22;;;5.48;100.00
11049;BME280;5577;42.706;23.160;2024-01-07T01:28:36;92511.72;;;5.48;100.00
11049;BME280;5577;42.706;23.160;2024-01-07T01:31:20;92511.81;;;5.51;100.00
11049;BME280;5577;42.706;23.160;2024-01-07T01:34:04;92499.84;;;5.54;100.00
11049;BME280;5577;42.706;23.160;2024-01-07T01:36:48;92491.22;;;5.53;100.00
11049;BME280;5577;42.706;23.160;2024-01-07T01:39:31;92477.72;;;5.55;100.00
11049;BME280;5577;42.706;23.160;2024-01-07T01:42:15;92474.03;;;5.59;100.00
11049;BME280;5577;42.706;23.160;2024-01-07T01:44:59;92491.69;;;5.59;100.00
11049;BME280;5577;42.706;23.160;2024-01-07T01:47:46;64821.28;;;-141.11;100.00
11049;BME280;5577;42.706;23.160;2024-01-07T01:50:30;92470.53;;;5.48;100.00
11049;BME280;5577;42.706;23.160;2024-01-07T01:53:15;92459.63;;;5.46;100.00
11049;BME280;5577;42.706;23.160;2024-01-07T01:56:01;64821.28;;;-141.11;100.00
11049;BME280;5577;42.706;23.160;2024-01-07T01:58:46;92446.78;;;5.38;100.00
11049;BME280;5577;42.706;23.160;2024-01-07T02:01:31;64821.28;;;-141.11;100.00
11049;BME280;5577;42.706;23.160;2024-01-07T02:04:15;92440.63;;;5.56;100.00
11049;BME280;5577;42.706;23.160;2024-01-07T02:06:59;92448.06;;;5.51;100.00
11049;BME280;5577;42.706;23.160;2024-01-07T02:09:43;92448.56;;;5.60;100.00
11049;BME280;5577;42.706;23.160;2024-01-07T02:12:27;92452.75;;;5.64;100.00
11049;BME280;5577;42.706;23.160;2024-01-07T02:15:11;92449.50;;;5.45;100.00
11049;BME280;5577;42.706;23.160;2024-01-07T02:17:55;92424.16;;;5.56;100.00
11049;BME280;5577;42.706;23.160;2024-01-07T02:20:39;92422.91;;;5.46;100.00
11049;BME280;5577;42.706;23.160;2024-01-07T02:23:23;92422.59;;;5.51;100.00
11049;BME280;5577;42.706;23.160;2024-01-07T02:26:07;92412.63;;;5.64;100.00
11049;BME280;5577;42.706;23.160;2024-01-07T02:28:51;92392.31;;;5.57;100.00
11049;BME280;5577;42.706;23.160;2024-01-07T02:31:35;92367.88;;;5.53;100.00
11049;BME280;5577;42.706;23.160;2024-01-07T02:34:19;92347.72;;;5.61;100.00
11049;BME280;5577;42.706;23.160;2024-01-07T02:37:03;92365.25;;;5.53;100.00
11049;BME280;5577;42.706;23.160;2024-01-07T02:39:47;92366.44;;;5.30;100.00
11049;BME280;5577;42.706;23.160;2024-01-07T02:42:31;92364.03;;;5.18;100.00
11049;BME280;5577;42.706;23.160;2024-01-07T02:45:15;92360.81;;;5.28;100.00
11049;BME280;5577;42.706;23.160;2024-01-07T02:47:59;92376.72;;;5.42;100.00
11049;BME280;5577;42.706;23.160;2024-01-07T02:50:43;92364.41;;;5.46;100.00
11049;BME280;5577;42.706;23.160;2024-01-07T02:53:27;92368.63;;;5.54;100.00
11049;BME280;5577;42.706;23.160;2024-01-07T02:56:11;92371.34;;;5.61;100.00
11049;BME280;5577;42.706;23.160;2024-01-07T02:58:55;92374.84;;;5.72;100.00
11049;BME280;5577;42.706;23.160;2024-01-07T03:01:40;92397.16;;;5.85;100.00
11049;BME280;5577;42.706;23.160;2024-01-07T03:04:24;64821.28;;;-141.11;100.00
11049;BME280;5577;42.706;23.160;2024-01-07T03:07:08;92405.63;;;6.05;100.00
11049;BME280;5577;42.706;23.160;2024-01-07T03:09:52;92408.03;;;6.17;100.00
11049;BME280;5577;42.706;23.160;2024-01-07T03:12:36;92430.72;;;6.32;100.00
11049;BME280;5577;42.706;23.160;2024-01-07T03:15:20;92435.13;;;6.24;100.00
11049;BME280;5577;42.706;23.160;2024-01-07T03:18:04;64821.28;;;-141.11;100.00
11049;BME280;5577;42.706;23.160;2024-01-07T03:20:48;92429.88;;;6.61;100.00
11049;BME280;5577;42.706;23.160;2024-01-07T03:23:33;92430.03;;;6.78;100.00
11049;BME280;5577;42.706;23.160;2024-01-07T03:26:18;64821.28;;;-141.11;100.00
11049;BME280;5577;42.706;23.160;2024-01-07T03:29:03;92420.84;;;7.02;100.00
11049;BME280;5577;42.706;23.160;2024-01-07T03:31:47;92375.31;;;6.51;100.00
11049;BME280;5577;42.706;23.160;2024-01-07T03:34:31;92429.41;;;6.95;100.00
11049;BME280;5577;42.706;23.160;2024-01-07T03:37:14;64821.28;;;-141.11;100.00
11049;BME280;5577;42.706;23.160;2024-01-07T03:39:58;92427.13;;;7.41;100.00
11049;BME280;5577;42.706;23.160;2024-01-07T03:42:42;92404.25;;;7.48;100.00
11049;BME280;5577;42.706;23.160;2024-01-07T03:45:26;92400.13;;;7.54;100.00
11049;BME280;5577;42.706;23.160;2024-01-07T03:48:10;92394.81;;;7.47;100.00
11049;BME280;5577;42.706;23.160;2024-01-07T03:50:54;92386.16;;;7.43;100.00
11049;BME280;5577;42.706;23.160;2024-01-07T03:53:38;92393.69;;;7.41;100.00
11049;BME280;5577;42.706;23.160;2024-01-07T03:56:22;92382.72;;;7.36;100.00
11049;BME280;5577;42.706;23.160;2024-01-07T03:59:06;92373.34;;;7.38;100.00
11049;BME280;5577;42.706;23.160;2024-01-07T04:01:50;92369.56;;;7.36;100.00
11049;BME280;5577;42.706;23.160;2024-01-07T04:04:33;92376.72;;;7.39;100.00
11049;BME280;5577;42.706;23.160;2024-01-07T04:07:18;92363.59;;;7.46;100.00
11049;BME280;5577;42.706;23.160;2024-01-07T04:10:01;92352.31;;;7.42;100.00
11049;BME280;5577;42.706;23.160;2024-01-07T04:12:46;92351.22;;;7.57;100.00
11049;BME280;5577;42.706;23.160;2024-01-07T04:15:31;92350.88;;;7.55;100.00
11049;BME280;5577;42.706;23.160;2024-01-07T04:18:15;92347.84;;;7.53;100.00
11049;BME280;5577;42.706;23.160;2024-01-07T04:20:59;92342.97;;;7.55;100.00
11049;BME280;5577;42.706;23.160;2024-01-07T04:23:43;92337.72;;;7.58;100.00
11049;BME280;5577;42.706;23.160;2024-01-07T04:26:27;92332.81;;;7.53;100.00
11049;BME280;5577;42.706;23.160;2024-01-07T04:29:11;92336.22;;;7.54;100.00
11049;BME280;5577;42.706;23.160;2024-01-07T04:31:55;92343.22;;;7.32;100.00
11049;BME280;5577;42.706;23.160;2024-01-07T04:34:39;92339.06;;;7.24;100.00
11049;BME280;5577;42.706;23.160;2024-01-07T04:37:24;92350.41;;;7.35;100.00
11049;BME280;5577;42.706;23.160;2024-01-07T04:40:08;92347.06;;;7.45;100.00
11049;BME280;5577;42.706;23.160;2024-01-07T04:42:53;92344.81;;;7.47;100.00
11049;BME280;5577;42.706;23.160;2024-01-07T04:45:37;92315.81;;;7.37;100.00
11049;BME280;5577;42.706;23.160;2024-01-07T04:48:21;92327.13;;;7.51;100.00
11049;BME280;5577;42.706;23.160;2024-01-07T04:51:05;92327.19;;;7.62;100.00
11049;BME280;5577;42.706;23.160;2024-01-07T04:53:49;92333.94;;;7.56;100.00
11049;BME280;5577;42.706;23.160;2024-01-07T04:56:33;92327.13;;;7.51;100.00
11049;BME280;5577;42.706;23.160;2024-01-07T04:59:17;92330.50;;;7.41;100.00
11049;BME280;5577;42.706;23.160;2024-01-07T05:02:01;92348.53;;;7.43;100.00
11049;BME280;5577;42.706;23.160;2024-01-07T05:04:46;92344.03;;;7.40;100.00
11049;BME280;5577;42.706;23.160;2024-01-07T05:07:30;92339.47;;;7.30;100.00
11049;BME280;5577;42.706;23.160;2024-01-07T05:10:13;92339.47;;;7.30;100.00
11049;BME280;5577;42.706;23.160;2024-01-07T05:12:57;92334.19;;;7.33;100.00
11049;BME280;5577;42.706;23.160;2024-01-07T05:15:42;92333.09;;;7.38;100.00
11049;BME280;5577;42.706;23.160;2024-01-07T05:18:26;92327.84;;;7.38;100.00
11049;BME280;5577;42.706;23.160;2024-01-07T05:21:11;92329.75;;;7.41;100.00
11049;BME280;5577;42.706;23.160;2024-01-07T05:23:55;92338.72;;;7.36;100.00
11049;BME280;5577;42.706;23.160;2024-01-07T05:26:43;92327.06;;;7.37;100.00
11049;BME280;5577;42.706;23.160;2024-01-07T05:29:27;92327.38;;;7.22;100.00
11049;BME280;5577;42.706;23.160;2024-01-07T05:32:11;92290.03;;;6.99;100.00
11049;BME280;5577;42.706;23.160;2024-01-07T05:34:54;92318.06;;;7.42;100.00
11049;BME280;5577;42.706;23.160;2024-01-07T05:37:39;92309.81;;;7.40;100.00
11049;BME280;5577;42.706;23.160;2024-01-07T05:40:23;92305.63;;;7.32;100.00
11049;BME280;5577;42.706;23.160;2024-01-07T05:43:07;92303.75;;;7.32;100.00
11049;BME280;5577;42.706;23.160;2024-01-07T05:45:51;92298.09;;;7.27;100.00
11049;BME280;5577;42.706;23.160;2024-01-07T05:48:46;92298.50;;;7.36;100.00
11049;BME280;5577;42.706;23.160;2024-01-07T05:51:30;92287.19;;;7.28;100.00
11049;BME280;5577;42.706;23.160;2024-01-07T05:54:15;92277.53;;;6.82;100.00
11049;BME280;5577;42.706;23.160;2024-01-07T05:56:59;92283.72;;;7.14;100.00
11049;BME280;5577;42.706;23.160;2024-01-07T05:59:45;92287.28;;;7.49;100.00
11049;BME280;5577;42.706;23.160;2024-01-07T06:02:29;92296.72;;;7.57;100.00
11049;BME280;5577;42.706;23.160;2024-01-07T06:05:13;92305.72;;;7.53;100.00
11049;BME280;5577;42.706;23.160;2024-01-07T06:07:57;92300.50;;;7.63;100.00
11049;BME280;5577;42.706;23.160;2024-01-07T06:10:41;92298.69;;;7.85;100.00
11049;BME280;5577;42.706;23.160;2024-01-07T06:13:25;92299.84;;;7.91;100.00
11049;BME280;5577;42.706;23.160;2024-01-07T06:16:09;92297.22;;;8.01;100.00
11049;BME280;5577;42.706;23.160;2024-01-07T06:18:53;92300.25;;;8.10;100.00
11049;BME280;5577;42.706;23.160;2024-01-07T06:21:37;92305.16;;;8.19;100.00
11049;BME280;5577;42.706;23.160;2024-01-07T06:24:21;92300.69;;;8.26;100.00
11049;BME280;5577;42.706;23.160;2024-01-07T06:27:05;92295.03;;;8.31;100.00
11049;BME280;5577;42.706;23.160;2024-01-07T06:29:49;92289.03;;;8.31;100.00
11049;BME280;5577;42.706;23.160;2024-01-07T06:32:33;92308.97;;;8.28;100.00
11049;BME280;5577;42.706;23.160;2024-01-07T06:35:16;92304.09;;;8.30;100.00
11049;BME280;5577;42.706;23.160;2024-01-07T06:38:00;92298.44;;;8.35;100.00
11049;BME280;5577;42.706;23.160;2024-01-07T06:40:44;92299.56;;;8.34;100.00
11049;BME280;5577;42.706;23.160;2024-01-07T06:43:28;92298.06;;;8.37;100.00
11049;BME280;5577;42.706;23.160;2024-01-07T06:46:12;92285.63;;;8.34;100.00
11049;BME280;5577;42.706;23.160;2024-01-07T06:48:56;92286.38;;;8.41;100.00
11049;BME280;5577;42.706;23.160;2024-01-07T06:51:40;92286.00;;;8.43;100.00
11049;BME280;5577;42.706;23.160;2024-01-07T06:54:24;92284.91;;;8.47;100.00
11049;BME280;5577;42.706;23.160;2024-01-07T06:57:08;92280.75;;;8.50;100.00
11049;BME280;5577;42.706;23.160;2024-01-07T06:59:52;92281.50;;;8.50;100.00
11049;BME280;5577;42.706;23.160;2024-01-07T07:02:36;92286.78;;;8.54;100.00
11049;BME280;5577;42.706;23.160;2024-01-07T07:05:20;92279.63;;;8.54;100.00
11049;BME280;5577;42.706;23.160;2024-01-07T07:08:04;92295.81;;;8.56;100.00
11049;BME280;5577;42.706;23.160;2024-01-07T07:10:48;92297.69;;;8.59;100.00
11049;BME280;5577;42.706;23.160;2024-01-07T07:13:32;92310.16;;;8.59;100.00
11049;BME280;5577;42.706;23.160;2024-01-07T07:16:16;92313.91;;;8.54;100.00
11049;BME280;5577;42.706;23.160;2024-01-07T07:19:00;92302.59;;;8.61;100.00
11049;BME280;5577;42.706;23.160;2024-01-07T07:21:44;92315.41;;;8.59;100.00
11049;BME280;5577;42.706;23.160;2024-01-07T07:24:28;92307.88;;;8.57;100.00
11049;BME280;5577;42.706;23.160;2024-01-07T07:27:12;92309.75;;;8.57;100.00
11049;BME280;5577;42.706;23.160;2024-01-07T07:29:55;92317.28;;;8.62;100.00
11049;BME280;5577;42.706;23.160;2024-01-07T07:32:40;92314.63;;;8.62;100.00
11049;BME280;5577;42.706;23.160;2024-01-07T07:35:25;92304.09;;;8.69;100.00
11049;BME280;5577;42.706;23.160;2024-01-07T07:38:08;92301.44;;;8.69;100.00
11049;BME280;5577;42.706;23.160;2024-01-07T07:40:52;92319.16;;;8.72;100.00
11049;BME280;5577;42.706;23.160;2024-01-07T07:43:36;92306.00;;;8.75;100.00
11049;BME280;5577;42.706;23.160;2024-01-07T07:46:20;92306.00;;;8.82;100.00
11049;BME280;5577;42.706;23.160;2024-01-07T07:49:04;92301.06;;;8.84;100.00
11049;BME280;5577;42.706;23.160;2024-01-07T07:51:48;92306.72;;;8.90;100.00
11049;BME280;5577;42.706;23.160;2024-01-07T07:54:32;92307.09;;;8.92;100.00
11049;BME280;5577;42.706;23.160;2024-01-07T07:57:16;92293.13;;;8.99;100.00
11049;BME280;5577;42.706;23.160;2024-01-07T07:59:59;92314.25;;;8.99;100.00
11049;BME280;5577;42.706;23.160;2024-01-07T08:02:44;92307.44;;;9.08;100.00
11049;BME280;5577;42.706;23.160;2024-01-07T08:05:27;92305.97;;;9.11;100.00
11049;BME280;5577;42.706;23.160;2024-01-07T08:08:11;92299.94;;;9.07;100.00
11049;BME280;5577;42.706;23.160;2024-01-07T08:10:55;92301.44;;;9.08;100.00
11049;BME280;5577;42.706;23.160;2024-01-07T08:13:39;92302.56;;;9.14;100.00
11049;BME280;5577;42.706;23.160;2024-01-07T08:16:23;92302.53;;;9.17;100.00
11049;BME280;5577;42.706;23.160;2024-01-07T08:19:07;92294.63;;;9.21;100.00
11049;BME280;5577;42.706;23.160;2024-01-07T08:21:51;92300.63;;;9.21;100.00
11049;BME280;5577;42.706;23.160;2024-01-07T08:24:36;92294.22;;;9.26;100.00
11049;BME280;5577;42.706;23.160;2024-01-07T08:27:20;92282.16;;;9.28;100.00
11049;BME280;5577;42.706;23.160;2024-01-07T08:30:04;92283.28;;;9.34;100.00
11049;BME280;5577;42.706;23.160;2024-01-07T08:32:48;92283.97;;;9.52;100.00
11049;BME280;5577;42.706;23.160;2024-01-07T08:35:32;92277.91;;;9.52;100.00
11049;BME280;5577;42.706;23.160;2024-01-07T08:38:16;92274.13;;;9.60;100.00
11049;BME280;5577;42.706;23.160;2024-01-07T08:41:00;92285.84;;;9.55;100.00
11049;BME280;5577;42.706;23.160;2024-01-07T08:43:44;92277.50;;;9.60;100.00
11049;BME280;5577;42.706;23.160;2024-01-07T08:46:28;92281.25;;;9.70;100.00
11049;BME280;5577;42.706;23.160;2024-01-07T08:49:13;92278.59;;;9.73;100.00
11049;BME280;5577;42.706;23.160;2024-01-07T08:51:57;92277.41;;;9.85;100.00
11049;BME280;5577;42.706;23.160;2024-01-07T08:54:41;92288.59;;;10.17;100.00
11049;BME280;5577;42.706;23.160;2024-01-07T08:57:25;92282.94;;;10.15;100.00
11049;BME280;5577;42.706;23.160;2024-01-07T09:00:09;92280.66;;;10.17;100.00
11049;BME280;5577;42.706;23.160;2024-01-07T09:02:53;92282.47;;;10.30;100.00
11049;BME280;5577;42.706;23.160;2024-01-07T09:05:37;92292.69;;;10.28;100.00
11049;BME280;5577;42.706;23.160;2024-01-07T09:08:20;92299.81;;;10.38;100.00
11049;BME280;5577;42.706;23.160;2024-01-07T09:11:04;92288.38;;;10.48;100.00
11049;BME280;5577;42.706;23.160;2024-01-07T09:13:50;92286.44;;;10.59;100.00
11049;BME280;5577;42.706;23.160;2024-01-07T09:16:34;92296.44;;;10.82;100.00
11049;BME280;5577;42.706;23.160;2024-01-07T09:19:17;92279.50;;;11.16;100.00
11049;BME280;5577;42.706;23.160;2024-01-07T09:22:01;92281.00;;;11.54;100.00
11049;BME280;5577;42.706;23.160;2024-01-07T09:24:45;92288.59;;;12.16;100.00
11049;BME280;5577;42.706;23.160;2024-01-07T09:27:29;92293.31;;;13.08;100.00
11049;BME280;5577;42.706;23.160;2024-01-07T09:30:13;92284.00;;;13.62;100.00
11049;BME280;5577;42.706;23.160;2024-01-07T09:32:58;92278.06;;;13.54;100.00
11049;BME280;5577;42.706;23.160;2024-01-07T09:35:42;92290.88;;;14.18;100.00
11049;BME280;5577;42.706;23.160;2024-01-07T09:38:27;92283.97;;;14.56;93.03
11049;BME280;5577;42.706;23.160;2024-01-07T09:41:11;92277.84;;;14.91;85.76
11049;BME280;5577;42.706;23.160;2024-01-07T09:43:55;92279.28;;;14.80;81.97
11049;BME280;5577;42.706;23.160;2024-01-07T09:46:41;92276.25;;;15.42;80.50
11049;BME280;5577;42.706;23.160;2024-01-07T09:49:25;92276.03;;;15.65;70.33
11049;BME280;5577;42.706;23.160;2024-01-07T09:52:09;92266.78;;;15.09;74.10
11049;BME280;5577;42.706;23.160;2024-01-07T09:54:56;92276.81;;;14.37;74.00
11049;BME280;5577;42.706;23.160;2024-01-07T09:57:41;92285.47;;;12.74;92.01
11049;BME280;5577;42.706;23.160;2024-01-07T10:00:27;92284.25;;;12.29;100.00
11049;BME280;5577;42.706;23.160;2024-01-07T10:03:12;92269.16;;;11.96;100.00
11049;BME280;5577;42.706;23.160;2024-01-07T10:05:57;92267.59;;;11.99;100.00
11049;BME280;5577;42.706;23.160;2024-01-07T10:08:41;92272.38;;;11.81;100.00
11049;BME280;5577;42.706;23.160;2024-01-07T10:11:25;92271.63;;;11.80;100.00
11049;BME280;5577;42.706;23.160;2024-01-07T10:14:09;92269.38;;;11.79;100.00
11049;BME280;5577;42.706;23.160;2024-01-07T10:16:53;92271.84;;;11.63;100.00
11049;BME280;5577;42.706;23.160;2024-01-07T10:19:36;92263.66;;;11.46;100.00
11049;BME280;5577;42.706;23.160;2024-01-07T10:22:20;92253.38;;;11.52;100.00
11049;BME280;5577;42.706;23.160;2024-01-07T10:25:05;92264.06;;;11.45;100.00
11049;BME280;5577;42.706;23.160;2024-01-07T10:27:50;92246.75;;;11.37;100.00
11049;BME280;5577;42.706;23.160;2024-01-07T10:30:34;92232.69;;;11.43;100.00
11049;BME280;5577;42.706;23.160;2024-01-07T10:33:18;92244.69;;;11.51;100.00
11049;BME280;5577;42.706;23.160;2024-01-07T10:36:06;92233.31;;;11.85;100.00
11049;BME280;5577;42.706;23.160;2024-01-07T10:38:50;92233.47;;;12.77;99.67
11049;BME280;5577;42.706;23.160;2024-01-07T10:41:34;92226.66;;;13.22;86.93
11049;BME280;5577;42.706;23.160;2024-01-07T10:44:20;92234.91;;;14.05;80.33
11049;BME280;5577;42.706;23.160;2024-01-07T10:47:06;92229.88;;;14.27;76.92
11049;BME280;5577;42.706;23.160;2024-01-07T10:49:51;92228.84;;;14.21;76.47
11049;BME280;5577;42.706;23.160;2024-01-07T10:52:36;92225.59;;;13.58;77.74
11049;BME280;5577;42.706;23.160;2024-01-07T10:55:23;92229.19;;;13.68;82.15
11049;BME280;5577;42.706;23.160;2024-01-07T10:58:09;92227.78;;;13.63;80.77
11049;BME280;5577;42.706;23.160;2024-01-07T11:00:54;92221.28;;;13.84;79.21
11049;BME280;5577;42.706;23.160;2024-01-07T11:06:43;92233.63;;;13.74;78.94
11049;BME280;5577;42.706;23.160;2024-01-07T11:09:37;92223.19;;;13.64;80.15
11049;BME280;5577;42.706;23.160;2024-01-07T11:12:23;92218.81;;;13.54;79.44
11049;BME280;5577;42.706;23.160;2024-01-07T11:15:07;92226.00;;;14.80;74.29
11049;BME280;5577;42.706;23.160;2024-01-07T11:17:51;92223.44;;;16.31;67.51
11049;BME280;5577;42.706;23.160;2024-01-07T11:20:35;92218.91;;;14.89;69.20
11049;BME280;5577;42.706;23.160;2024-01-07T11:23:29;92215.09;;;13.51;76.38
11049;BME280;5577;42.706;23.160;2024-01-07T11:26:13;92220.47;;;13.28;82.03
11049;BME280;5577;42.706;23.160;2024-01-07T11:28:57;92236.03;;;13.07;83.53
11049;BME280;5577;42.706;23.160;2024-01-07T11:31:42;92229.47;;;12.42;90.71
11049;BME280;5577;42.706;23.160;2024-01-07T11:34:39;92224.38;;;12.28;98.74
11049;BME280;5577;42.706;23.160;2024-01-07T11:37:33;92231.47;;;12.08;100.00
11049;BME280;5577;42.706;23.160;2024-01-07T11:40:17;92230.09;;;12.00;100.00
11049;BME280;5577;42.706;23.160;2024-01-07T11:43:03;92218.50;;;11.87;100.00
11049;BME280;5577;42.706;23.160;2024-01-07T11:45:51;92214.78;;;11.85;100.00
11049;BME280;5577;42.706;23.160;2024-01-07T11:48:35;92215.31;;;11.73;100.00
11049;BME280;5577;42.706;23.160;2024-01-07T11:51:19;92214.16;;;11.74;100.00
11049;BME280;5577;42.706;23.160;2024-01-07T11:54:03;92213.06;;;11.71;100.00
11049;BME280;5577;42.706;23.160;2024-01-07T11:56:48;92218.13;;;11.89;100.00
11049;BME280;5577;42.706;23.160;2024-01-07T11:59:35;92204.66;;;12.03;100.00
11049;BME280;5577;42.706;23.160;2024-01-07T12:02:20;92208.53;;;11.98;100.00
11049;BME280;5577;42.706;23.160;2024-01-07T12:05:04;92217.31;;;11.92;100.00
11049;BME280;5577;42.706;23.160;2024-01-07T12:07:48;92208.56;;;11.95;100.00
11049;BME280;5577;42.706;23.160;2024-01-07T12:10:32;92212.69;;;11.99;100.00
11049;BME280;5577;42.706;23.160;2024-01-07T12:13:16;92204.84;;;11.92;100.00
11049;BME280;5577;42.706;23.160;2024-01-07T12:16:00;92214.56;;;11.99;100.00
11049;BME280;5577;42.706;23.160;2024-01-07T12:18:44;92224.03;;;12.00;100.00
11049;BME280;5577;42.706;23.160;2024-01-07T12:21:28;92215.94;;;11.84;100.00
11049;BME280;5577;42.706;23.160;2024-01-07T12:24:13;92224.97;;;11.86;100.00
11049;BME280;5577;42.706;23.160;2024-01-07T12:27:03;92212.09;;;11.88;100.00
11049;BME280;5577;42.706;23.160;2024-01-07T12:29:53;92218.19;;;12.12;100.00
11049;BME280;5577;42.706;23.160;2024-01-07T12:32:37;92215.88;;;12.14;100.00
11049;BME280;5577;42.706;23.160;2024-01-07T12:35:24;92219.34;;;12.11;100.00
11049;BME280;5577;42.706;23.160;2024-01-07T12:38:09;92226.91;;;12.12;100.00
11049;BME280;5577;42.706;23.160;2024-01-07T12:40:53;92224.94;;;12.16;100.00
11049;BME280;5577;42.706;23.160;2024-01-07T12:43:37;92223.69;;;12.24;100.00
11049;BME280;5577;42.706;23.160;2024-01-07T12:46:21;92221.50;;;12.19;100.00
11049;BME280;5577;42.706;23.160;2024-01-07T12:49:05;92221.25;;;12.10;100.00
11049;BME280;5577;42.706;23.160;2024-01-07T12:51:49;92229.66;;;12.05;100.00
11049;BME280;5577;42.706;23.160;2024-01-07T12:54:33;92230.38;;;12.06;100.00
11049;BME280;5577;42.706;23.160;2024-01-07T12:57:17;92234.13;;;11.82;100.00
11049;BME280;5577;42.706;23.160;2024-01-07T13:00:03;92231.84;;;11.80;100.00
11049;BME280;5577;42.706;23.160;2024-01-07T13:02:49;92238.81;;;11.71;100.00
11049;BME280;5577;42.706;23.160;2024-01-07T13:05:34;92230.81;;;11.74;100.00
11049;BME280;5577;42.706;23.160;2024-01-07T13:08:18;92234.91;;;11.79;100.00
11049;BME280;5577;42.706;23.160;2024-01-07T13:11:02;92239.88;;;11.77;100.00
11049;BME280;5577;42.706;23.160;2024-01-07T13:13:46;92235.34;;;11.77;100.00
11049;BME280;5577;42.706;23.160;2024-01-07T13:16:30;92239.47;;;11.78;100.00
11049;BME280;5577;42.706;23.160;2024-01-07T13:19:14;92243.63;;;11.79;100.00
11049;BME280;5577;42.706;23.160;2024-01-07T13:21:58;92243.63;;;11.79;100.00
11049;BME280;5577;42.706;23.160;2024-01-07T13:24:42;92243.38;;;11.70;100.00
11049;BME280;5577;42.706;23.160;2024-01-07T13:27:26;92247.38;;;11.48;100.00
11049;BME280;5577;42.706;23.160;2024-01-07T13:30:10;92247.03;;;11.46;100.00
11049;BME280;5577;42.706;23.160;2024-01-07T13:32:54;92243.84;;;11.58;100.00
11049;BME280;5577;42.706;23.160;2024-01-07T13:35:41;92244.31;;;11.53;100.00
11049;BME280;5577;42.706;23.160;2024-01-07T13:38:25;92243.59;;;11.49;100.00
11049;BME280;5577;42.706;23.160;2024-01-07T13:41:09;92243.34;;;11.36;100.00
11049;BME280;5577;42.706;23.160;2024-01-07T13:43:53;92248.03;;;11.22;100.00
11049;BME280;5577;42.706;23.160;2024-01-07T13:46:39;92240.44;;;11.24;100.00
11049;BME280;5577;42.706;23.160;2024-01-07T13:49:23;92247.13;;;11.35;100.00
11049;BME280;5577;42.706;23.160;2024-01-07T13:52:07;92249.84;;;11.32;100.00
11049;BME280;5577;42.706;23.160;2024-01-07T13:54:51;92249.78;;;11.35;100.00
11049;BME280;5577;42.706;23.160;2024-01-07T13:57:35;92254.75;;;11.30;100.00
11049;BME280;5577;42.706;23.160;2024-01-07T14:00:19;92240.41;;;11.27;100.00
11049;BME280;5577;42.706;23.160;2024-01-07T14:03:04;92250.63;;;11.25;100.00
11049;BME280;5577;42.706;23.160;2024-01-07T14:05:48;92253.94;;;11.36;100.00
11049;BME280;5577;42.706;23.160;2024-01-07T14:08:31;92262.63;;;11.37;100.00
11049;BME280;5577;42.706;23.160;2024-01-07T14:11:19;92259.19;;;11.43;100.00
11049;BME280;5577;42.706;23.160;2024-01-07T14:14:03;92261.47;;;11.38;100.00
11049;BME280;5577;42.706;23.160;2024-01-07T14:16:48;92254.66;;;11.40;100.00
11049;BME280;5577;42.706;23.160;2024-01-07T14:19:32;92256.34;;;11.24;100.00
11049;BME280;5577;42.706;23.160;2024-01-07T14:22:15;92256.69;;;11.29;100.00
11049;BME280;5577;42.706;23.160;2024-01-07T14:24:59;92254.44;;;11.24;100.00
11049;BME280;5577;42.706;23.160;2024-01-07T14:27:43;92257.94;;;11.14;100.00